createdAt,value
2019-03-22T00:00:30.395Z,10.20
2019-03-22T00:01:36.693Z,10.20
2019-03-22T00:02:43.085Z,10.20
2019-03-22T00:03:49.715Z,10.20
2019-03-22T00:04:56.793Z,10.20
2019-03-22T00:06:03.362Z,10.20
2019-03-22T00:07:10.166Z,10.30
2019-03-22T00:08:16.803Z,10.20
2019-03-22T00:09:23.386Z,10.20
2019-03-22T00:10:29.985Z,10.20
2019-03-22T00:11:36.575Z,10.20
2019-03-22T00:12:42.886Z,10.20
2019-03-22T00:13:49.242Z,10.20
2019-03-22T00:14:55.893Z,10.20
2019-03-22T00:16:02.698Z,10.20
2019-03-22T00:17:09.145Z,10.20
2019-03-22T00:18:15.827Z,10.20
2019-03-22T00:19:22.486Z,10.20
2019-03-22T00:20:29.246Z,10.10
2019-03-22T00:21:35.801Z,10.20
2019-03-22T00:22:43.278Z,10.20
2019-03-22T00:23:49.761Z,10.20
2019-03-22T00:24:56.071Z,10.20
2019-03-22T00:26:02.867Z,10.20
2019-03-22T00:27:16.461Z,10.20
2019-03-22T00:28:17.566Z,10.20
2019-03-22T00:29:23.998Z,10.10
2019-03-22T00:30:30.566Z,10.20
2019-03-22T00:31:37.246Z,10.20
2019-03-22T00:32:43.777Z,10.20
2019-03-22T00:33:50.407Z,10.30
2019-03-22T00:34:57.021Z,10.30
2019-03-22T00:36:03.257Z,10.20
2019-03-22T00:37:09.992Z,10.20
2019-03-22T00:38:16.575Z,10.10
2019-03-22T00:39:23.243Z,10.10
2019-03-22T00:40:29.912Z,10.10
2019-03-22T00:41:36.457Z,10.20
2019-03-22T00:42:43.190Z,10.20
2019-03-22T00:43:49.854Z,10.10
2019-03-22T00:44:56.548Z,10.10
2019-03-22T00:46:03.510Z,10.20
2019-03-22T00:47:09.965Z,10.20
2019-03-22T00:48:16.902Z,10.10
2019-03-22T00:49:23.485Z,10.20
2019-03-22T00:50:30.133Z,10.20
2019-03-22T00:51:36.623Z,10.20
2019-03-22T00:52:44.090Z,10.10
2019-03-22T00:53:50.766Z,10.10
2019-03-22T00:54:57.433Z,10.10
2019-03-22T00:56:04.004Z,10.20
2019-03-22T00:57:10.554Z,10.10
2019-03-22T00:58:17.154Z,10.10
2019-03-22T00:59:24.696Z,10.10
2019-03-22T01:00:31.174Z,10.10
2019-03-22T01:01:37.714Z,10.10
2019-03-22T01:02:44.295Z,10.10
2019-03-22T01:03:51.032Z,10.10
2019-03-22T01:04:57.665Z,10.10
2019-03-22T01:06:04.460Z,10.10
2019-03-22T01:07:10.914Z,10.10
2019-03-22T01:08:17.554Z,10.10
2019-03-22T01:09:24.046Z,10.10
2019-03-22T01:10:30.591Z,10.10
2019-03-22T01:11:37.123Z,10.10
2019-03-22T01:12:43.498Z,10.10
2019-03-22T01:13:50.015Z,10.10
2019-03-22T01:14:57.035Z,10.10
2019-03-22T01:16:03.585Z,10.10
2019-03-22T01:17:11.181Z,10.10
2019-03-22T01:18:17.777Z,10.10
2019-03-22T01:19:24.418Z,10.10
2019-03-22T01:20:31.015Z,10.10
2019-03-22T01:21:37.707Z,10.10
2019-03-22T01:22:44.204Z,10.10
2019-03-22T01:23:50.518Z,10.10
2019-03-22T01:24:57.148Z,10.10
2019-03-22T01:26:03.897Z,10.00
2019-03-22T01:27:10.517Z,10.10
2019-03-22T01:28:17.113Z,10.10
2019-03-22T01:29:23.841Z,10.10
2019-03-22T01:30:30.408Z,10.10
2019-03-22T01:31:36.986Z,10.10
2019-03-22T01:32:43.913Z,10.00
2019-03-22T01:33:50.622Z,10.10
2019-03-22T01:34:57.103Z,10.10
2019-03-22T01:36:03.773Z,10.10
2019-03-22T01:37:10.612Z,10.00
2019-03-22T01:38:18.191Z,10.10
2019-03-22T01:39:24.664Z,10.10
2019-03-22T01:40:31.413Z,10.00
2019-03-22T01:41:37.983Z,10.10
2019-03-22T01:42:44.653Z,10.10
2019-03-22T01:43:51.257Z,10.00
2019-03-22T01:44:58.056Z,10.00
2019-03-22T01:46:04.672Z,10.00
2019-03-22T01:47:11.274Z,10.10
2019-03-22T01:48:17.958Z,10.10
2019-03-22T01:49:24.698Z,10.00
2019-03-22T01:50:31.206Z,10.10
2019-03-22T01:51:37.735Z,10.10
2019-03-22T01:52:44.317Z,10.10
2019-03-22T01:53:51.872Z,10.10
2019-03-22T01:54:58.519Z,10.20
2019-03-22T01:56:05.112Z,10.10
2019-03-22T01:57:11.860Z,10.10
2019-03-22T01:58:18.373Z,10.10
2019-03-22T01:59:24.845Z,10.10
2019-03-22T02:00:31.530Z,10.00
2019-03-22T02:01:37.996Z,10.00
2019-03-22T02:02:44.695Z,10.00
2019-03-22T02:03:51.256Z,10.10
2019-03-22T02:04:57.801Z,10.00
2019-03-22T02:06:04.613Z,10.00
2019-03-22T02:07:11.256Z,10.00
2019-03-22T02:08:17.854Z,9.90
2019-03-22T02:09:24.453Z,10.00
2019-03-22T02:10:31.013Z,10.00
2019-03-22T02:11:38.722Z,10.00
2019-03-22T02:12:45.244Z,9.90
2019-03-22T02:13:52.454Z,10.00
2019-03-22T02:14:58.965Z,10.00
2019-03-22T02:16:05.537Z,10.00
2019-03-22T02:17:12.275Z,9.90
2019-03-22T02:18:18.776Z,10.00
2019-03-22T02:19:25.445Z,10.00
2019-03-22T02:20:32.218Z,10.00
2019-03-22T02:21:38.744Z,10.00
2019-03-22T02:22:45.614Z,10.10
2019-03-22T02:23:52.404Z,10.10
2019-03-22T02:24:59.062Z,10.10
2019-03-22T02:26:05.614Z,10.00
2019-03-22T02:27:12.268Z,10.00
2019-03-22T02:28:18.875Z,10.00
2019-03-22T02:29:25.330Z,9.90
2019-03-22T02:30:32.025Z,9.90
2019-03-22T02:31:38.669Z,9.90
2019-03-22T02:32:45.284Z,9.90
2019-03-22T02:33:51.804Z,9.80
2019-03-22T02:34:58.258Z,9.80
2019-03-22T02:36:04.863Z,9.80
2019-03-22T02:37:11.523Z,9.90
2019-03-22T02:38:17.969Z,9.80
2019-03-22T02:39:24.930Z,9.70
2019-03-22T02:40:31.434Z,9.70
2019-03-22T02:41:39.066Z,9.60
2019-03-22T02:42:45.579Z,9.70
2019-03-22T02:43:54.593Z,9.70
2019-03-22T02:45:00.661Z,9.70
2019-03-22T02:46:07.186Z,9.70
2019-03-22T02:47:13.794Z,9.70
2019-03-22T02:48:20.403Z,9.70
2019-03-22T02:49:26.971Z,9.70
2019-03-22T02:50:33.696Z,9.70
2019-03-22T02:51:41.349Z,9.70
2019-03-22T02:52:48.181Z,9.70
2019-03-22T02:53:54.881Z,9.60
2019-03-22T02:55:01.623Z,9.60
2019-03-22T02:56:08.557Z,9.60
2019-03-22T02:57:15.244Z,9.60
2019-03-22T02:58:21.726Z,9.60
2019-03-22T02:59:27.946Z,9.60
2019-03-22T03:00:34.909Z,9.60
2019-03-22T03:01:41.557Z,9.60
2019-03-22T03:02:48.175Z,9.60
2019-03-22T03:03:54.823Z,9.60
2019-03-22T03:05:01.422Z,9.60
2019-03-22T03:06:08.924Z,9.70
2019-03-22T03:07:15.563Z,9.60
2019-03-22T03:08:22.194Z,9.70
2019-03-22T03:09:29.048Z,9.60
2019-03-22T03:10:35.437Z,9.60
2019-03-22T03:11:41.957Z,9.70
2019-03-22T03:12:49.496Z,9.60
2019-03-22T03:13:55.988Z,9.60
2019-03-22T03:15:02.485Z,9.60
2019-03-22T03:16:10.066Z,9.60
2019-03-22T03:17:16.656Z,9.60
2019-03-22T03:18:23.242Z,9.70
2019-03-22T03:19:30.036Z,9.70
2019-03-22T03:20:36.485Z,9.70
2019-03-22T03:21:43.152Z,9.70
2019-03-22T03:22:49.510Z,9.70
2019-03-22T03:23:56.123Z,9.70
2019-03-22T03:25:02.714Z,9.70
2019-03-22T03:26:09.495Z,9.70
2019-03-22T03:27:16.084Z,9.70
2019-03-22T03:28:36.019Z,9.70
2019-03-22T03:29:31.058Z,9.70
2019-03-22T03:30:37.600Z,9.70
2019-03-22T03:31:44.526Z,9.80
2019-03-22T03:32:51.131Z,9.70
2019-03-22T03:33:57.553Z,9.70
2019-03-22T03:35:04.017Z,9.70
2019-03-22T03:36:10.586Z,9.60
2019-03-22T03:37:17.067Z,9.70
2019-03-22T03:38:23.686Z,9.70
2019-03-22T03:39:30.155Z,9.60
2019-03-22T03:40:36.863Z,9.60
2019-03-22T03:41:43.308Z,9.70
2019-03-22T03:42:49.863Z,9.70
2019-03-22T03:43:56.424Z,9.70
2019-03-22T03:45:03.055Z,9.70
2019-03-22T03:46:09.486Z,9.70
2019-03-22T03:47:16.003Z,9.70
2019-03-22T03:48:22.744Z,9.70
2019-03-22T03:49:29.407Z,9.70
2019-03-22T03:50:36.224Z,9.70
2019-03-22T03:51:42.774Z,9.70
2019-03-22T03:52:49.329Z,9.70
2019-03-22T03:53:55.859Z,9.70
2019-03-22T03:55:02.547Z,9.70
2019-03-22T03:56:09.060Z,9.70
2019-03-22T03:57:15.611Z,9.70
2019-03-22T03:58:22.301Z,9.70
2019-03-22T03:59:28.577Z,9.70
2019-03-22T04:00:35.430Z,9.70
2019-03-22T04:01:42.172Z,9.70
2019-03-22T04:02:48.935Z,9.70
2019-03-22T04:03:55.409Z,9.70
2019-03-22T04:05:01.981Z,9.70
2019-03-22T04:06:08.446Z,9.70
2019-03-22T04:07:15.118Z,9.70
2019-03-22T04:08:21.818Z,9.70
2019-03-22T04:09:28.312Z,9.70
2019-03-22T04:10:34.633Z,9.70
2019-03-22T04:11:41.246Z,9.70
2019-03-22T04:12:47.812Z,9.70
2019-03-22T04:13:54.450Z,9.70
2019-03-22T04:15:01.043Z,9.70
2019-03-22T04:16:07.581Z,9.70
2019-03-22T04:17:14.008Z,9.70
2019-03-22T04:18:20.709Z,9.70
2019-03-22T04:19:27.408Z,9.70
2019-03-22T04:20:33.917Z,9.70
2019-03-22T04:21:40.602Z,9.70
2019-03-22T04:22:46.924Z,9.70
2019-03-22T04:23:53.511Z,9.70
2019-03-22T04:25:00.517Z,9.70
2019-03-22T04:26:07.633Z,9.70
2019-03-22T04:27:14.234Z,9.70
2019-03-22T04:28:20.752Z,9.70
2019-03-22T04:29:27.249Z,9.70
2019-03-22T04:30:33.745Z,9.70
2019-03-22T04:31:40.330Z,9.60
2019-03-22T04:32:47.088Z,9.70
2019-03-22T04:33:53.679Z,9.70
2019-03-22T04:34:59.909Z,9.70
2019-03-22T04:36:06.626Z,9.60
2019-03-22T04:37:13.445Z,9.60
2019-03-22T04:38:19.946Z,9.60
2019-03-22T04:39:26.558Z,9.70
2019-03-22T04:40:33.169Z,9.60
2019-03-22T04:41:39.858Z,9.60
2019-03-22T04:42:46.477Z,9.60
2019-03-22T04:43:53.118Z,9.60
2019-03-22T04:44:59.995Z,9.60
2019-03-22T04:46:07.476Z,9.60
2019-03-22T04:47:18.004Z,9.60
2019-03-22T04:48:28.646Z,9.60
2019-03-22T04:49:36.927Z,9.60
2019-03-22T04:50:45.068Z,9.60
2019-03-22T04:51:52.744Z,9.60
2019-03-22T04:53:00.533Z,9.60
2019-03-22T04:54:08.530Z,9.60
2019-03-22T04:55:16.227Z,9.60
2019-03-22T04:56:24.533Z,9.60
2019-03-22T04:57:31.915Z,9.60
2019-03-22T04:58:40.435Z,9.60
2019-03-22T04:59:48.875Z,9.60
2019-03-22T05:00:58.057Z,9.60
2019-03-22T05:02:07.449Z,9.60
2019-03-22T05:03:14.611Z,9.60
2019-03-22T05:04:22.936Z,9.60
2019-03-22T05:05:29.395Z,9.60
2019-03-22T05:06:37.452Z,9.60
2019-03-22T05:07:45.247Z,9.70
2019-03-22T05:08:53.370Z,9.60
2019-03-22T05:10:00.454Z,9.70
2019-03-22T05:11:11.086Z,9.70
2019-03-22T05:12:20.540Z,9.60
2019-03-22T05:13:27.732Z,9.60
2019-03-22T05:14:36.876Z,9.70
2019-03-22T05:15:44.153Z,9.60
2019-03-22T05:16:52.829Z,9.60
2019-03-22T05:18:00.383Z,9.60
2019-03-22T05:19:09.515Z,9.70
2019-03-22T05:20:17.579Z,9.70
2019-03-22T05:21:27.655Z,9.70
2019-03-22T05:22:36.430Z,9.70
2019-03-22T05:23:44.674Z,9.70
2019-03-22T05:24:51.863Z,9.70
2019-03-22T05:26:00.405Z,9.70
2019-03-22T05:27:07.576Z,9.70
2019-03-22T05:28:14.794Z,9.70
2019-03-22T05:29:30.404Z,9.70
2019-03-22T05:31:22.094Z,9.70
2019-03-22T05:32:28.843Z,9.70
2019-03-22T05:33:35.416Z,9.70
2019-03-22T05:34:41.995Z,9.70
2019-03-22T05:35:48.474Z,9.70
2019-03-22T05:36:55.034Z,9.70
2019-03-22T05:38:02.417Z,9.70
2019-03-22T05:39:10.425Z,9.70
2019-03-22T05:40:17.056Z,9.70
2019-03-22T05:41:23.828Z,9.80
2019-03-22T05:42:30.417Z,9.70
2019-03-22T05:43:37.087Z,9.70
2019-03-22T05:44:43.596Z,9.70
2019-03-22T05:45:50.123Z,9.70
2019-03-22T05:46:56.733Z,9.70
2019-03-22T05:48:03.438Z,9.70
2019-03-22T05:49:09.924Z,9.70
2019-03-22T05:50:16.219Z,9.80
2019-03-22T05:51:22.774Z,9.70
2019-03-22T05:52:29.499Z,9.70
2019-03-22T05:53:36.068Z,9.70
2019-03-22T05:54:42.573Z,9.70
2019-03-22T05:55:49.193Z,9.70
2019-03-22T05:56:55.889Z,9.80
2019-03-22T05:58:02.604Z,9.80
2019-03-22T05:59:09.215Z,9.80
2019-03-22T06:00:17.038Z,9.70
2019-03-22T06:01:23.514Z,9.70
2019-03-22T06:02:30.114Z,9.80
2019-03-22T06:03:36.695Z,9.80
2019-03-22T06:04:43.300Z,9.80
2019-03-22T06:05:49.963Z,9.80
2019-03-22T06:06:56.473Z,9.80
2019-03-22T06:08:03.153Z,9.80
2019-03-22T06:09:10.462Z,9.80
2019-03-22T06:10:17.035Z,9.70
2019-03-22T06:11:23.694Z,9.70
2019-03-22T06:12:30.147Z,9.70
2019-03-22T06:13:36.455Z,9.70
2019-03-22T06:14:42.769Z,9.80
2019-03-22T06:15:49.467Z,9.70
2019-03-22T06:16:56.302Z,9.80
2019-03-22T06:18:02.936Z,9.80
2019-03-22T06:19:09.446Z,9.80
2019-03-22T06:20:15.889Z,9.70
2019-03-22T06:21:22.501Z,9.80
2019-03-22T06:22:29.076Z,9.80
2019-03-22T06:23:35.658Z,9.90
2019-03-22T06:24:42.434Z,9.90
2019-03-22T06:25:48.765Z,9.90
2019-03-22T06:26:55.361Z,9.90
2019-03-22T06:28:02.073Z,9.90
2019-03-22T06:29:08.617Z,9.90
2019-03-22T06:30:15.634Z,9.90
2019-03-22T06:31:22.199Z,9.90
2019-03-22T06:32:28.805Z,10.00
2019-03-22T06:33:35.493Z,9.90
2019-03-22T06:34:42.187Z,10.00
2019-03-22T06:35:48.850Z,10.00
2019-03-22T06:36:55.521Z,10.00
2019-03-22T06:38:01.811Z,10.10
2019-03-22T06:39:10.680Z,10.10
2019-03-22T06:40:17.073Z,10.10
2019-03-22T06:41:23.698Z,10.10
2019-03-22T06:42:30.023Z,10.10
2019-03-22T06:43:36.706Z,10.10
2019-03-22T06:44:43.581Z,10.10
2019-03-22T06:45:50.376Z,10.10
2019-03-22T06:46:57.923Z,10.00
2019-03-22T06:48:04.647Z,10.10
2019-03-22T06:49:11.111Z,10.10
2019-03-22T06:50:17.825Z,10.10
2019-03-22T06:51:24.402Z,10.10
2019-03-22T06:52:31.191Z,10.10
2019-03-22T06:53:37.844Z,10.10
2019-03-22T06:54:44.474Z,10.10
2019-03-22T06:55:51.133Z,10.20
2019-03-22T06:56:57.692Z,10.10
2019-03-22T06:58:04.476Z,10.20
2019-03-22T06:59:11.196Z,10.20
2019-03-22T07:00:17.577Z,10.20
2019-03-22T07:01:23.955Z,10.20
2019-03-22T07:02:30.788Z,10.20
2019-03-22T07:03:37.268Z,10.10
2019-03-22T07:04:43.967Z,10.20
2019-03-22T07:05:50.598Z,10.20
2019-03-22T07:06:57.265Z,10.20
2019-03-22T07:08:03.849Z,10.20
2019-03-22T07:09:11.361Z,10.30
2019-03-22T07:10:18.055Z,10.30
2019-03-22T07:11:24.734Z,10.30
2019-03-22T07:12:31.345Z,10.40
2019-03-22T07:13:37.725Z,10.30
2019-03-22T07:14:44.299Z,10.40
2019-03-22T07:15:50.862Z,10.40
2019-03-22T07:16:58.951Z,10.40
2019-03-22T07:18:05.776Z,10.40
2019-03-22T07:19:12.413Z,10.40
2019-03-22T07:20:20.094Z,10.30
2019-03-22T07:21:26.665Z,10.30
2019-03-22T07:22:33.287Z,10.30
2019-03-22T07:23:39.820Z,10.30
2019-03-22T07:24:46.056Z,10.30
2019-03-22T07:25:52.555Z,10.30
2019-03-22T07:26:59.111Z,10.30
2019-03-22T07:28:05.681Z,10.30
2019-03-22T07:29:12.549Z,10.40
2019-03-22T07:30:19.493Z,10.40
2019-03-22T07:31:26.372Z,10.40
2019-03-22T07:32:32.882Z,10.40
2019-03-22T07:33:39.553Z,10.40
2019-03-22T07:34:46.362Z,10.40
2019-03-22T07:35:52.983Z,10.40
2019-03-22T07:36:59.333Z,10.40
2019-03-22T07:38:06.052Z,10.40
2019-03-22T07:39:12.655Z,10.40
2019-03-22T07:40:19.339Z,10.40
2019-03-22T07:41:25.985Z,10.40
2019-03-22T07:42:32.520Z,10.40
2019-03-22T07:43:39.371Z,10.40
2019-03-22T07:44:45.920Z,10.50
2019-03-22T07:45:52.459Z,10.50
2019-03-22T07:46:58.958Z,10.50
2019-03-22T07:48:05.615Z,10.50
2019-03-22T07:49:12.181Z,10.60
2019-03-22T07:50:18.749Z,10.50
2019-03-22T07:51:25.452Z,10.60
2019-03-22T07:52:32.097Z,10.60
2019-03-22T07:53:38.804Z,10.70
2019-03-22T07:54:45.488Z,10.70
2019-03-22T07:55:52.647Z,10.70
2019-03-22T07:56:59.301Z,10.80
2019-03-22T07:58:06.822Z,10.80
2019-03-22T07:59:13.438Z,10.80
2019-03-22T08:00:30.263Z,10.80
2019-03-22T08:01:28.018Z,10.90
2019-03-22T08:02:34.774Z,10.90
2019-03-22T08:03:42.366Z,11.00
2019-03-22T08:04:49.054Z,10.90
2019-03-22T08:05:55.596Z,11.00
2019-03-22T08:07:02.257Z,11.00
2019-03-22T08:08:08.907Z,11.00
2019-03-22T08:09:15.443Z,11.00
2019-03-22T08:10:22.099Z,11.10
2019-03-22T08:11:28.616Z,11.10
2019-03-22T08:12:34.957Z,11.10
2019-03-22T08:13:41.655Z,11.20
2019-03-22T08:14:48.329Z,11.20
2019-03-22T08:15:57.446Z,11.20
2019-03-22T08:17:03.292Z,11.20
2019-03-22T08:18:09.994Z,11.30
2019-03-22T08:19:16.553Z,11.20
2019-03-22T08:20:23.155Z,11.30
2019-03-22T08:21:29.732Z,11.30
2019-03-22T08:22:36.867Z,11.30
2019-03-22T08:23:43.236Z,11.30
2019-03-22T08:24:49.869Z,11.40
2019-03-22T08:25:56.399Z,11.40
2019-03-22T08:27:03.029Z,11.40
2019-03-22T08:28:09.604Z,11.30
2019-03-22T08:29:16.420Z,11.30
2019-03-22T08:30:23.694Z,11.30
2019-03-22T08:31:30.323Z,11.30
2019-03-22T08:32:37.022Z,11.30
2019-03-22T08:33:43.634Z,11.30
2019-03-22T08:34:50.192Z,11.30
2019-03-22T08:35:56.894Z,11.30
2019-03-22T08:37:03.220Z,11.20
2019-03-22T08:38:09.888Z,11.20
2019-03-22T08:39:16.542Z,11.20
2019-03-22T08:40:23.124Z,11.20
2019-03-22T08:41:29.817Z,11.20
2019-03-22T08:42:36.538Z,11.20
2019-03-22T08:43:43.247Z,11.20
2019-03-22T08:44:49.754Z,11.20
2019-03-22T08:45:56.373Z,11.10
2019-03-22T08:47:03.262Z,11.10
2019-03-22T08:48:09.619Z,11.10
2019-03-22T08:49:16.550Z,11.10
2019-03-22T08:50:23.305Z,11.20
2019-03-22T08:51:30.149Z,11.10
2019-03-22T08:52:36.863Z,11.20
2019-03-22T08:53:55.289Z,11.20
2019-03-22T08:54:57.245Z,11.20
2019-03-22T08:56:03.710Z,11.30
2019-03-22T08:57:10.085Z,11.30
2019-03-22T08:58:18.440Z,11.30
2019-03-22T08:59:24.589Z,11.30
2019-03-22T09:00:39.022Z,11.30
2019-03-22T09:01:39.211Z,11.40
2019-03-22T09:02:45.783Z,11.40
2019-03-22T09:03:52.570Z,11.40
2019-03-22T09:04:59.617Z,11.40
2019-03-22T09:06:07.867Z,11.50
2019-03-22T09:07:14.862Z,11.60
2019-03-22T09:08:21.674Z,11.70
2019-03-22T09:09:40.735Z,11.70
2019-03-22T09:10:36.148Z,11.80
2019-03-22T09:11:42.850Z,11.80
2019-03-22T09:12:50.834Z,11.90
2019-03-22T09:13:57.439Z,12.00
2019-03-22T09:15:04.136Z,12.10
2019-03-22T09:16:10.849Z,12.20
2019-03-22T09:17:17.279Z,12.30
2019-03-22T09:18:23.905Z,12.30
2019-03-22T09:19:30.509Z,12.40
2019-03-22T09:20:37.328Z,12.40
2019-03-22T09:21:43.908Z,12.40
2019-03-22T09:22:50.627Z,12.40
2019-03-22T09:23:57.230Z,12.50
2019-03-22T09:25:03.727Z,12.60
2019-03-22T09:26:10.574Z,12.60
2019-03-22T09:27:17.144Z,12.70
2019-03-22T09:28:23.779Z,12.80
2019-03-22T09:29:30.382Z,12.90
2019-03-22T09:30:37.146Z,12.90
2019-03-22T09:31:43.765Z,12.90
2019-03-22T09:32:50.413Z,13.00
2019-03-22T09:33:57.150Z,13.00
2019-03-22T09:35:03.735Z,12.80
2019-03-22T09:36:10.473Z,12.80
2019-03-22T09:37:17.319Z,12.70
2019-03-22T09:38:23.995Z,12.50
2019-03-22T09:39:30.745Z,12.50
2019-03-22T09:40:37.418Z,12.50
2019-03-22T09:41:44.203Z,12.50
2019-03-22T09:42:52.998Z,12.50
2019-03-22T09:43:59.177Z,12.40
2019-03-22T09:45:06.197Z,12.40
2019-03-22T09:46:12.762Z,12.40
2019-03-22T09:47:19.281Z,12.40
2019-03-22T09:48:26.060Z,12.40
2019-03-22T09:49:32.662Z,12.50
2019-03-22T09:50:39.435Z,12.50
2019-03-22T09:51:46.087Z,12.50
2019-03-22T09:52:52.708Z,12.50
2019-03-22T09:53:59.398Z,12.50
2019-03-22T09:55:13.158Z,12.40
2019-03-22T09:56:15.109Z,12.40
2019-03-22T09:57:21.848Z,12.40
2019-03-22T09:58:28.608Z,12.50
2019-03-22T09:59:35.153Z,12.50
2019-03-22T10:00:41.937Z,12.50
2019-03-22T10:01:48.514Z,12.50
2019-03-22T10:02:55.143Z,12.60
2019-03-22T10:04:01.726Z,12.70
2019-03-22T10:05:08.881Z,12.70
2019-03-22T10:06:15.564Z,12.80
2019-03-22T10:07:22.260Z,12.80
2019-03-22T10:08:28.800Z,12.80
2019-03-22T10:09:35.407Z,12.80
2019-03-22T10:10:41.975Z,12.80
2019-03-22T10:11:48.593Z,12.90
2019-03-22T10:12:56.086Z,13.00
2019-03-22T10:14:03.165Z,13.30
2019-03-22T10:15:09.958Z,13.40
2019-03-22T10:16:16.624Z,13.50
2019-03-22T10:17:23.354Z,13.70
2019-03-22T10:18:29.875Z,13.70
2019-03-22T10:19:36.468Z,13.70
2019-03-22T10:20:43.289Z,13.60
2019-03-22T10:21:50.035Z,13.60
2019-03-22T10:22:56.708Z,13.60
2019-03-22T10:24:03.292Z,13.60
2019-03-22T10:25:09.996Z,13.60
2019-03-22T10:26:16.733Z,13.70
2019-03-22T10:27:23.373Z,13.70
2019-03-22T10:28:30.026Z,13.70
2019-03-22T10:29:36.927Z,13.80
2019-03-22T10:30:43.422Z,13.90
2019-03-22T10:31:50.243Z,14.00
2019-03-22T10:32:56.639Z,14.30
2019-03-22T10:34:03.288Z,14.40
2019-03-22T10:35:09.930Z,14.50
2019-03-22T10:36:17.510Z,14.60
2019-03-22T10:37:24.167Z,15.10
2019-03-22T10:38:32.059Z,16.60
2019-03-22T10:39:38.839Z,18.60
2019-03-22T10:40:45.478Z,20.50
2019-03-22T10:41:52.284Z,19.70
2019-03-22T10:42:58.871Z,19.40
2019-03-22T10:44:05.805Z,18.60
2019-03-22T10:45:12.642Z,17.90
2019-03-22T10:46:19.239Z,17.20
2019-03-22T10:47:25.912Z,16.80
2019-03-22T10:48:33.542Z,17.70
2019-03-22T10:49:41.926Z,19.90
2019-03-22T10:50:48.591Z,21.30
2019-03-22T10:51:57.468Z,23.00
2019-03-22T10:53:03.451Z,24.60
2019-03-22T10:54:10.112Z,26.30
2019-03-22T10:55:29.341Z,25.20
2019-03-22T10:56:24.999Z,23.00
2019-03-22T10:57:31.566Z,20.90
2019-03-22T10:58:38.216Z,18.90
2019-03-22T10:59:44.988Z,17.80
2019-03-22T11:00:52.557Z,17.10
2019-03-22T11:02:03.690Z,16.50
2019-03-22T11:03:08.561Z,16.00
2019-03-22T11:04:15.243Z,15.80
2019-03-22T11:05:21.677Z,15.60
2019-03-22T11:06:28.064Z,15.50
2019-03-22T11:07:34.782Z,15.40
2019-03-22T11:08:42.488Z,15.20
2019-03-22T11:09:49.132Z,15.10
2019-03-22T11:10:55.628Z,15.10
2019-03-22T11:12:11.890Z,15.30
2019-03-22T11:13:10.372Z,15.90
2019-03-22T11:14:16.922Z,17.70
2019-03-22T11:15:24.055Z,18.80
2019-03-22T11:16:31.089Z,19.80
2019-03-22T11:17:39.491Z,20.10
2019-03-22T11:18:46.107Z,19.80
2019-03-22T11:19:52.862Z,19.50
2019-03-22T11:21:05.222Z,18.70
2019-03-22T11:22:08.925Z,17.80
2019-03-22T11:23:15.505Z,17.40
2019-03-22T11:24:22.038Z,16.80
2019-03-22T11:25:28.696Z,16.20
2019-03-22T11:26:35.364Z,15.90
2019-03-22T11:27:43.145Z,15.60
2019-03-22T11:28:49.757Z,15.40
2019-03-22T11:29:56.290Z,15.40
2019-03-22T11:31:04.976Z,15.20
2019-03-22T11:32:13.108Z,15.10
2019-03-22T11:33:19.780Z,15.00
2019-03-22T11:34:26.556Z,14.90
2019-03-22T11:35:33.477Z,14.80
2019-03-22T11:36:40.279Z,14.80
2019-03-22T11:37:46.951Z,14.80
2019-03-22T11:38:53.502Z,14.70
2019-03-22T11:40:00.480Z,14.80
2019-03-22T11:41:07.288Z,14.80
2019-03-22T11:42:14.906Z,15.00
2019-03-22T11:43:21.506Z,16.70
2019-03-22T11:44:27.897Z,17.10
2019-03-22T11:45:34.797Z,17.60
2019-03-22T11:46:41.355Z,20.40
2019-03-22T11:47:48.057Z,22.50
2019-03-22T11:48:54.564Z,21.90
2019-03-22T11:50:01.438Z,20.50
2019-03-22T11:51:07.847Z,19.00
2019-03-22T11:52:14.436Z,18.20
2019-03-22T11:53:21.029Z,17.70
2019-03-22T11:54:27.766Z,17.30
2019-03-22T11:55:34.328Z,17.20
2019-03-22T11:56:41.187Z,17.10
2019-03-22T11:57:48.061Z,17.00
2019-03-22T11:58:55.090Z,17.00
2019-03-22T12:00:01.713Z,16.80
2019-03-22T12:01:08.324Z,16.70
2019-03-22T12:02:22.179Z,16.60
2019-03-22T12:03:23.565Z,16.50
2019-03-22T12:04:29.860Z,16.40
2019-03-22T12:05:40.333Z,16.20
2019-03-22T12:06:44.681Z,16.10
2019-03-22T12:07:51.382Z,16.00
2019-03-22T12:08:58.136Z,16.00
2019-03-22T12:10:05.263Z,15.90
2019-03-22T12:11:11.846Z,15.90
2019-03-22T12:12:18.526Z,15.90
2019-03-22T12:13:25.117Z,16.10
2019-03-22T12:14:31.499Z,16.20
2019-03-22T12:15:37.859Z,16.30
2019-03-22T12:16:45.617Z,16.20
2019-03-22T12:17:52.201Z,16.40
2019-03-22T12:18:59.825Z,16.50
2019-03-22T12:20:08.330Z,16.40
2019-03-22T12:21:15.054Z,16.40
2019-03-22T12:22:22.720Z,16.60
2019-03-22T12:23:29.504Z,16.50
2019-03-22T12:24:36.319Z,16.40
2019-03-22T12:25:43.027Z,16.40
2019-03-22T12:26:50.164Z,16.30
2019-03-22T12:27:56.935Z,16.20
2019-03-22T12:29:03.807Z,16.00
2019-03-22T12:30:13.897Z,15.90
2019-03-22T12:31:20.500Z,15.90
2019-03-22T12:32:32.235Z,15.70
2019-03-22T12:33:35.286Z,15.80
2019-03-22T12:34:41.912Z,15.80
2019-03-22T12:35:48.549Z,16.10
2019-03-22T12:36:54.875Z,16.30
2019-03-22T12:38:01.312Z,16.70
2019-03-22T12:39:09.935Z,17.10
2019-03-22T12:40:17.695Z,17.70
2019-03-22T12:41:24.369Z,18.90
2019-03-22T12:42:30.880Z,18.80
2019-03-22T12:43:37.513Z,19.90
2019-03-22T12:44:44.237Z,19.70
2019-03-22T12:45:50.701Z,19.20
2019-03-22T12:46:57.354Z,18.60
2019-03-22T12:48:03.715Z,18.20
2019-03-22T12:49:10.294Z,17.90
2019-03-22T12:50:17.052Z,17.90
2019-03-22T12:51:23.732Z,17.80
2019-03-22T12:52:31.382Z,17.70
2019-03-22T12:53:40.225Z,17.50
2019-03-22T12:54:46.925Z,19.50
2019-03-22T12:55:53.533Z,21.20
2019-03-22T12:57:00.166Z,22.00
2019-03-22T12:58:06.742Z,22.40
2019-03-22T12:59:13.516Z,22.50
2019-03-22T13:00:21.423Z,22.30
2019-03-22T13:01:28.275Z,21.90
2019-03-22T13:02:41.988Z,21.00
2019-03-22T13:03:43.234Z,20.20
2019-03-22T13:04:49.750Z,19.50
2019-03-22T13:05:56.433Z,18.70
2019-03-22T13:07:02.965Z,18.20
2019-03-22T13:08:09.598Z,17.80
2019-03-22T13:09:16.206Z,17.90
2019-03-22T13:10:23.248Z,17.70
2019-03-22T13:11:29.639Z,17.50
2019-03-22T13:12:36.274Z,17.20
2019-03-22T13:13:42.846Z,17.10
2019-03-22T13:14:49.716Z,16.80
2019-03-22T13:15:56.353Z,16.60
2019-03-22T13:17:02.954Z,16.50
2019-03-22T13:18:09.544Z,16.40
2019-03-22T13:19:16.250Z,16.20
2019-03-22T13:20:24.080Z,16.10
2019-03-22T13:21:30.595Z,16.10
2019-03-22T13:22:36.978Z,16.10
2019-03-22T13:23:43.702Z,17.60
2019-03-22T13:24:50.357Z,19.20
2019-03-22T13:25:57.076Z,18.90
2019-03-22T13:27:03.700Z,18.60
2019-03-22T13:28:10.467Z,19.10
2019-03-22T13:29:16.992Z,19.20
2019-03-22T13:30:34.357Z,18.70
2019-03-22T13:31:41.174Z,18.30
2019-03-22T13:32:52.143Z,18.00
2019-03-22T13:33:56.341Z,18.40
2019-03-22T13:35:03.032Z,18.50
2019-03-22T13:36:09.595Z,18.20
2019-03-22T13:37:16.304Z,18.10
2019-03-22T13:38:22.914Z,17.90
2019-03-22T13:39:29.612Z,17.70
2019-03-22T13:40:36.534Z,17.50
2019-03-22T13:41:43.101Z,17.40
2019-03-22T13:42:49.841Z,17.30
2019-03-22T13:43:56.566Z,17.30
2019-03-22T13:45:03.086Z,17.10
2019-03-22T13:46:09.885Z,16.90
2019-03-22T13:47:17.578Z,16.70
2019-03-22T13:48:24.195Z,16.60
2019-03-22T13:49:30.883Z,16.40
2019-03-22T13:50:37.831Z,16.30
2019-03-22T13:51:44.373Z,16.20
2019-03-22T13:52:50.990Z,16.10
2019-03-22T13:53:57.808Z,15.90
2019-03-22T13:55:04.842Z,15.70
2019-03-22T13:56:11.455Z,15.70
2019-03-22T13:57:17.839Z,15.70
2019-03-22T13:58:24.305Z,15.70
2019-03-22T13:59:30.917Z,15.70
2019-03-22T14:00:37.428Z,15.60
2019-03-22T14:01:45.270Z,15.60
2019-03-22T14:03:02.070Z,16.20
2019-03-22T14:04:00.376Z,17.40
2019-03-22T14:05:08.458Z,18.60
2019-03-22T14:06:15.134Z,19.40
2019-03-22T14:07:21.579Z,20.10
2019-03-22T14:08:28.146Z,20.70
2019-03-22T14:09:35.700Z,21.00
2019-03-22T14:10:42.745Z,21.40
2019-03-22T14:11:49.297Z,21.60
2019-03-22T14:12:55.832Z,21.00
2019-03-22T14:14:02.478Z,20.50
2019-03-22T14:15:09.555Z,20.10
2019-03-22T14:16:16.385Z,20.50
2019-03-22T14:17:22.926Z,20.90
2019-03-22T14:18:29.430Z,21.20
2019-03-22T14:19:36.270Z,21.60
2019-03-22T14:20:43.961Z,21.50
2019-03-22T14:21:50.717Z,20.40
2019-03-22T14:22:57.299Z,19.60
2019-03-22T14:24:04.273Z,19.30
2019-03-22T14:25:10.946Z,19.60
2019-03-22T14:26:17.513Z,20.10
2019-03-22T14:27:24.519Z,20.50
2019-03-22T14:28:31.234Z,20.70
2019-03-22T14:29:37.853Z,20.90